»·PEaware :: N407TL KVGT-KIFP

N407TL :: KVGT-KIFP

FLIGHT INFORMATION

Flight Status: Arrived
Operator: Privately registered:
United States
More flights under this callsign
Pilot: Cole W. (19516)
Aircraft: PIPER PA-28R-201 ARROW
(P28R)
More flights by this aircraft type
Origin: KVGT North Las Vegas
United States
Destination: KIFP Laughlin/Bullhead Intl
United States
More flights between these airports :: More routes between these airports
Route: +RTTRN3 LAS BLD LYNSY
File this flight plan on PilotEdge
Remarks: TEST IFR FLIGHT
Altitude:
(Current/Filed)
9,000ft
Speed:
(Current/Filed)
130kts
Departed: 18-Jun-18 10:30 AM
Arrived: 18-Jun-18 11:13 AM
Distance/Time
Traveled:
71nm/0:43
Distance/Time
To Go:
Arrived

Flight Plot

Page will automatically refresh every two minutes.

Flight plan parsing failed; only flown route is shown


Map Options




Map Legend


Flown Route
Filed Route
Departure Airport
Arrival Airport
Navaid (VOR, NDB)
Fix

Horizontal Profiles

Position Reports

Time Latitude Longitude Heading Altitude Ground
Speed
18-Jun-18 09:52 36.208244 -115.197778 177 2207ft 0kts
18-Jun-18 09:53 36.208244 -115.197778 177 2207ft 0kts
18-Jun-18 09:54 36.208244 -115.197778 177 2207ft 0kts
18-Jun-18 09:55 36.208244 -115.197778 177 2207ft 0kts
18-Jun-18 09:56 36.208244 -115.197778 177 2207ft 0kts
18-Jun-18 09:57 36.208244 -115.197778 177 2207ft 0kts
18-Jun-18 09:58 36.208244 -115.197778 177 2207ft 0kts
18-Jun-18 09:59 36.208244 -115.197778 177 2207ft 0kts
18-Jun-18 10:00 36.208244 -115.197778 177 2207ft 0kts
18-Jun-18 10:01 36.208244 -115.197778 177 2207ft 0kts
18-Jun-18 10:02 36.208244 -115.197778 177 2207ft 0kts
18-Jun-18 10:03 36.208244 -115.197778 177 2207ft 0kts
18-Jun-18 10:04 36.208244 -115.197778 177 2207ft 0kts
18-Jun-18 10:05 36.208244 -115.197778 177 2207ft 0kts
18-Jun-18 10:06 36.208244 -115.197778 177 2207ft 0kts
18-Jun-18 10:07 36.208244 -115.197778 177 2207ft 0kts
18-Jun-18 10:08 36.208244 -115.197778 177 2207ft 0kts
18-Jun-18 10:09 36.208244 -115.197778 177 2207ft 0kts
18-Jun-18 10:10 36.208244 -115.197778 177 2207ft 0kts
18-Jun-18 10:11 36.208244 -115.197778 177 2207ft 0kts
18-Jun-18 10:12 36.208242 -115.197777 177 2207ft 0kts
18-Jun-18 10:13 36.208242 -115.197777 177 2207ft 0kts
18-Jun-18 10:14 36.208242 -115.197777 177 2207ft 0kts
18-Jun-18 10:15 36.208242 -115.197777 177 2207ft 0kts
18-Jun-18 10:16 36.208242 -115.197777 177 2207ft 0kts
18-Jun-18 10:17 36.208242 -115.197777 177 2207ft 0kts
18-Jun-18 10:18 36.208242 -115.197777 177 2207ft 0kts
18-Jun-18 10:19 36.208242 -115.197777 177 2207ft 0kts
18-Jun-18 10:20 36.208203 -115.197764 158 2207ft 0kts
18-Jun-18 10:21 36.208203 -115.197764 158 2207ft 0kts
18-Jun-18 10:22 36.208216 -115.197561 25 2207ft 0kts
18-Jun-18 10:23 36.208742 -115.197114 343 2207ft 11kts
18-Jun-18 10:24 36.210726 -115.198827 315 2207ft 13kts
18-Jun-18 10:25 36.212620 -115.202808 266 2207ft 5kts
18-Jun-18 10:26 36.213684 -115.203466 336 2207ft 0kts
18-Jun-18 10:27 36.213684 -115.203466 336 2207ft 0kts
18-Jun-18 10:28 36.213684 -115.203466 336 2207ft 0kts
18-Jun-18 10:29 36.213684 -115.203466 336 2207ft 0kts
18-Jun-18 10:30 36.209548 -115.196259 133 2277ft 91kts
18-Jun-18 10:31 36.189090 -115.175971 176 3379ft 100kts
18-Jun-18 10:32 36.171476 -115.196838 267 4293ft 92kts
18-Jun-18 10:33 36.167596 -115.230036 258 5022ft 107kts
18-Jun-18 10:34 36.186969 -115.248385 353 5893ft 112kts
18-Jun-18 10:35 36.213353 -115.267429 321 6700ft 115kts
18-Jun-18 10:36 36.240842 -115.282934 22 7531ft 113kts
18-Jun-18 10:37 36.245432 -115.248026 140 8217ft 120kts
18-Jun-18 10:38 36.216785 -115.223970 153 8808ft 126kts
18-Jun-18 10:39 36.181864 -115.207593 160 9012ft 145kts
18-Jun-18 10:40 36.142537 -115.189323 160 9013ft 154kts
18-Jun-18 10:41 36.102168 -115.170423 160 9019ft 155kts
18-Jun-18 10:42 36.073302 -115.135225 111 9022ft 158kts
18-Jun-18 10:43 36.041738 -115.112135 181 9024ft 153kts
18-Jun-18 10:44 35.999228 -115.111090 181 9031ft 153kts
18-Jun-18 10:45 35.956532 -115.110008 181 9032ft 153kts
18-Jun-18 10:46 35.913900 -115.108910 181 9032ft 153kts
18-Jun-18 10:47 35.871843 -115.107807 181 9032ft 153kts
18-Jun-18 10:48 35.829147 -115.106668 181 9032ft 153kts
18-Jun-18 10:49 35.786620 -115.105514 181 9032ft 153kts
18-Jun-18 10:50 35.743991 -115.104337 181 9032ft 153kts
18-Jun-18 10:51 35.701350 -115.103140 181 9032ft 153kts
18-Jun-18 10:52 35.658753 -115.101923 181 9032ft 153kts
18-Jun-18 10:53 35.617741 -115.100733 181 9031ft 153kts
18-Jun-18 10:54 35.575050 -115.099475 181 9031ft 153kts
18-Jun-18 10:55 35.548903 -115.070075 91 9030ft 161kts
18-Jun-18 10:56 35.543737 -115.016174 102 9079ft 160kts
18-Jun-18 10:57 35.534291 -114.962422 105 9077ft 162kts
18-Jun-18 10:58 35.523971 -114.908346 106 8898ft 160kts
18-Jun-18 10:59 35.513629 -114.855324 107 8315ft 159kts
18-Jun-18 11:00 35.503392 -114.802928 107 7694ft 159kts
18-Jun-18 11:01 35.492987 -114.749795 107 6947ft 160kts
18-Jun-18 11:02 35.482870 -114.698224 108 6705ft 148kts
18-Jun-18 11:03 35.464675 -114.659071 158 6411ft 137kts
18-Jun-18 11:04 35.430326 -114.638887 150 5781ft 133kts
18-Jun-18 11:05 35.399571 -114.614080 149 5256ft 133kts
18-Jun-18 11:06 35.368146 -114.589113 155 4641ft 135kts
18-Jun-18 11:07 35.332820 -114.578294 171 4149ft 130kts
18-Jun-18 11:08 35.297369 -114.570232 176 3647ft 129kts
18-Jun-18 11:09 35.260759 -114.567173 175 2943ft 140kts
18-Jun-18 11:10 35.224481 -114.565031 176 2141ft 102kts
18-Jun-18 11:11 35.199135 -114.562914 177 1419ft 86kts
18-Jun-18 11:12 35.177141 -114.561064 177 976ft 76kts
18-Jun-18 11:13 35.159059 -114.559674 177 703ft 37kts
18-Jun-18 11:14 35.155918 -114.558367 86 703ft 0kts
18-Jun-18 11:15 35.155981 -114.556870 86 703ft 24kts

Navigation Log

Ident Type
Flight plan parsing failed, navigation log unavailable